Time;durP1;ratioP1;P1;durP2;ratioP2;P2;SDS_P1;SDS_P2;PMS_P1;PMS_P2;Temp;Humidity;BMP_temperature;BMP_pressure;BME280_temperature;BME280_humidity;BME280_pressure;Samples;Min_cycle;Max_cycle;Signal;HPM_P1;HPM_P2
2021/03/25 00:00:34;;;;;;;75.32;26.75;;;3.20;99.90;;;;;;4961824;27;20082;-82
2021/03/25 00:03:01;;;;;;;81.75;27.73;;;3.20;99.90;;;;;;4963338;27;20537;-82
2021/03/25 00:05:26;;;;;;;83.97;27.55;;;3.20;99.90;;;;;;4964954;27;20085;-83
2021/03/25 00:07:50;;;;;;;87.45;28.05;;;3.20;99.90;;;;;;4963991;27;20101;-82
2021/03/25 00:10:18;;;;;;;80.70;27.17;;;3.20;99.90;;;;;;4963246;27;20444;-82
2021/03/25 00:12:42;;;;;;;77.82;27.45;;;3.20;99.90;;;;;;4964576;27;20548;-82
2021/03/25 00:15:06;;;;;;;83.45;26.88;;;3.20;99.90;;;;;;4964212;27;20470;-82
2021/03/25 00:17:29;;;;;;;76.95;27.67;;;3.20;99.90;;;;;;4964979;27;20090;-81
2021/03/25 00:19:55;;;;;;;78.50;27.77;;;3.20;99.90;;;;;;4971089;27;20567;-83
2021/03/25 00:22:18;;;;;;;82.32;28.13;;;3.20;99.90;;;;;;4966326;27;20096;-82
2021/03/25 00:24:41;;;;;;;79.57;27.08;;;3.20;99.90;;;;;;4965499;27;20093;-83
2021/03/25 00:27:06;;;;;;;78.20;27.50;;;3.20;99.90;;;;;;4967931;27;20125;-82
2021/03/25 00:29:28;;;;;;;76.60;27.65;;;3.20;99.90;;;;;;4968110;27;20082;-82
2021/03/25 00:31:51;;;;;;;75.03;26.90;;;3.20;99.90;;;;;;4968356;27;20126;-81
2021/03/25 00:34:16;;;;;;;77.35;26.65;;;3.20;99.90;;;;;;4969862;27;20093;-81
2021/03/25 00:36:40;;;;;;;85.35;29.17;;;3.10;99.90;;;;;;4968768;27;20096;-80
2021/03/25 00:39:06;;;;;;;73.68;26.35;;;3.10;99.90;;;;;;4968764;27;20092;-82
2021/03/25 00:41:31;;;;;;;74.78;27.88;;;3.10;99.90;;;;;;4967059;27;20142;-82
2021/03/25 00:43:54;;;;;;;84.03;27.60;;;3.00;99.90;;;;;;4967390;27;20086;-82
2021/03/25 00:46:18;;;;;;;77.28;28.45;;;3.00;99.90;;;;;;4967538;27;20093;-82
2021/03/25 00:48:41;;;;;;;76.75;26.30;;;3.00;99.90;;;;;;4964229;27;20110;-81
2021/03/25 00:51:03;;;;;;;84.32;28.88;;;3.00;99.90;;;;;;4969000;27;20612;-82
2021/03/25 00:53:30;;;;;;;83.45;28.38;;;3.00;99.90;;;;;;4967854;27;20093;-82
2021/03/25 00:55:52;;;;;;;82.10;28.92;;;3.00;99.90;;;;;;4965298;27;20078;-83
2021/03/25 00:58:17;;;;;;;81.93;28.15;;;3.00;99.90;;;;;;4967883;27;20085;-82
2021/03/25 01:00:44;;;;;;;88.60;30.45;;;3.00;99.90;;;;;;4966491;27;20100;-84
2021/03/25 01:03:09;;;;;;;85.53;28.00;;;3.00;99.90;;;;;;4965536;27;20096;-82
2021/03/25 01:05:32;;;;;;;90.82;29.20;;;3.10;99.90;;;;;;4967814;27;20135;-82
2021/03/25 01:07:57;;;;;;;81.32;27.55;;;3.10;99.90;;;;;;4968125;27;20086;-82
2021/03/25 01:10:27;;;;;;;81.43;28.90;;;3.10;99.90;;;;;;4966446;27;20098;-82
2021/03/25 01:12:50;;;;;;;88.70;29.35;;;3.10;99.90;;;;;;4965328;27;20544;-82
2021/03/25 01:15:15;;;;;;;90.40;28.83;;;3.10;99.90;;;;;;4966397;27;20096;-82
2021/03/25 01:17:42;;;;;;;90.65;28.45;;;3.20;99.90;;;;;;4964750;27;20086;-82
2021/03/25 01:20:17;;;;;;;92.95;30.13;;;3.20;99.90;;;;;;4966734;27;20097;-82
2021/03/25 01:22:39;;;;;;;75.90;27.40;;;3.20;99.90;;;;;;4966461;27;20138;-82
2021/03/25 01:25:02;;;;;;;85.97;29.83;;;3.20;99.90;;;;;;4968971;27;20093;-82
2021/03/25 01:27:27;;;;;;;77.95;27.60;;;3.20;99.90;;;;;;4967660;27;20093;-79
2021/03/25 01:29:51;;;;;;;89.28;30.75;;;3.00;99.90;;;;;;4956971;27;20093;-82
2021/03/25 01:32:14;;;;;;;87.63;30.10;;;3.00;99.90;;;;;;4966422;27;20093;-82
2021/03/25 01:34:36;;;;;;;92.10;30.13;;;3.10;99.90;;;;;;4967881;27;20086;-81
2021/03/25 01:36:59;;;;;;;91.72;30.42;;;3.20;99.90;;;;;;4966292;27;20163;-82
2021/03/25 01:39:22;;;;;;;87.60;30.23;;;3.20;99.90;;;;;;4967836;27;20089;-81
2021/03/25 01:41:44;;;;;;;88.00;29.83;;;3.10;99.90;;;;;;4966395;27;20089;-82
2021/03/25 01:44:29;;;;;;;91.03;29.27;;;3.00;99.90;;;;;;4967155;27;20093;-81
2021/03/25 01:46:52;;;;;;;96.32;31.42;;;2.90;99.90;;;;;;4964376;27;20528;-82
2021/03/25 01:49:15;;;;;;;80.20;28.13;;;2.80;99.90;;;;;;4965897;27;20094;-81
2021/03/25 01:51:52;;;;;;;86.35;28.38;;;2.80;99.90;;;;;;4962370;27;20175;-81
2021/03/25 01:54:45;;;;;;;80.18;29.08;;;2.80;99.90;;;;;;4956818;27;20088;-82
2021/03/25 01:57:44;;;;;;;87.13;28.52;;;2.80;99.90;;;;;;4962447;27;20503;-82
2021/03/25 02:00:19;;;;;;;78.50;27.20;;;2.80;99.90;;;;;;4966403;27;20119;-80
2021/03/25 02:02:49;;;;;;;82.28;28.98;;;2.70;99.90;;;;;;4965042;27;20080;-79
2021/03/25 02:05:22;;;;;;;85.65;30.50;;;2.60;99.90;;;;;;4965192;27;20496;-82
2021/03/25 02:07:58;;;;;;;81.53;27.88;;;2.60;99.90;;;;;;4963756;27;20081;-80
2021/03/25 02:10:28;;;;;;;78.28;28.42;;;2.50;99.90;;;;;;4964932;27;20100;-81
2021/03/25 02:12:59;;;;;;;80.63;28.08;;;2.60;99.90;;;;;;4963817;27;20093;-81
2021/03/25 02:15:33;;;;;;;76.80;27.00;;;2.40;99.90;;;;;;4960454;27;20090;-83
2021/03/25 02:18:01;;;;;;;68.18;25.88;;;2.30;99.90;;;;;;4964491;27;20092;-82
2021/03/25 02:21:01;;;;;;;79.57;28.38;;;2.40;99.90;;;;;;4964999;27;20548;-82
2021/03/25 02:24:02;;;;;;;76.47;26.98;;;2.30;99.90;;;;;;4960243;27;20081;-80
2021/03/25 02:26:35;;;;;;;71.43;26.73;;;2.10;99.90;;;;;;4964662;27;20511;-82
2021/03/25 02:29:13;;;;;;;86.80;28.30;;;2.10;99.90;;;;;;4964754;27;20085;-82
2021/03/25 02:31:40;;;;;;;85.57;29.50;;;2.20;99.90;;;;;;4963496;27;20096;-82
2021/03/25 02:34:08;;;;;;;78.65;27.08;;;2.10;99.90;;;;;;4963399;27;20447;-81
2021/03/25 02:36:38;;;;;;;79.50;27.95;;;2.10;99.90;;;;;;4965797;27;20086;-82
2021/03/25 02:39:09;;;;;;;86.00;29.83;;;2.20;99.90;;;;;;4965265;27;20437;-82
2021/03/25 02:41:37;;;;;;;98.72;29.70;;;2.20;99.90;;;;;;4964570;27;20120;-81
2021/03/25 02:44:05;;;;;;;92.68;30.38;;;2.30;99.90;;;;;;4964472;27;20444;-82
2021/03/25 02:46:33;;;;;;;90.68;30.63;;;2.20;99.90;;;;;;4954744;27;20089;-81
2021/03/25 02:49:07;;;;;;;92.75;32.05;;;2.30;99.90;;;;;;4965702;27;20774;-81
2021/03/25 02:51:38;;;;;;;116.97;33.72;;;2.20;99.90;;;;;;4963077;27;20076;-81
2021/03/25 02:54:00;;;;;;;105.68;33.92;;;2.30;99.90;;;;;;4961674;27;20161;-82
2021/03/25 02:56:30;;;;;;;113.00;34.30;;;2.30;99.90;;;;;;4965473;27;20222;-82
2021/03/25 02:59:00;;;;;;;98.43;32.03;;;2.20;99.90;;;;;;4964260;27;20078;-82
2021/03/25 03:01:24;;;;;;;89.28;31.08;;;2.20;99.90;;;;;;4966536;27;20109;-82
2021/03/25 03:03:56;;;;;;;99.93;33.00;;;2.30;99.90;;;;;;4963663;27;20085;-82
2021/03/25 03:06:25;;;;;;;102.63;32.75;;;2.30;99.90;;;;;;4962885;27;20093;-82
2021/03/25 03:08:50;;;;;;;98.22;32.15;;;2.20;99.90;;;;;;4964384;27;20086;-81
2021/03/25 03:11:19;;;;;;;101.70;32.80;;;2.20;99.90;;;;;;4964931;27;20455;-81
2021/03/25 03:13:46;;;;;;;101.22;32.85;;;2.20;99.90;;;;;;4965007;27;20077;-82
2021/03/25 03:16:12;;;;;;;94.93;32.38;;;2.20;99.90;;;;;;4965050;27;20085;-82
2021/03/25 03:18:44;;;;;;;100.60;34.70;;;2.10;99.90;;;;;;4962453;27;20425;-82
2021/03/25 03:21:11;;;;;;;111.25;33.38;;;2.10;99.90;;;;;;4963203;27;20440;-81
2021/03/25 03:23:36;;;;;;;113.20;36.13;;;2.20;99.90;;;;;;4962404;27;20086;-81
2021/03/25 03:26:04;;;;;;;105.15;34.13;;;2.10;99.90;;;;;;4966105;27;20139;-82
2021/03/25 03:28:35;;;;;;;105.00;36.35;;;2.10;99.90;;;;;;4963659;27;20078;-82
2021/03/25 03:31:03;;;;;;;113.20;35.08;;;2.10;99.90;;;;;;4964494;27;20832;-82
2021/03/25 03:33:28;;;;;;;116.25;34.28;;;2.00;99.90;;;;;;4965148;27;20081;-82
2021/03/25 03:35:54;;;;;;;134.85;36.33;;;2.00;99.90;;;;;;4966227;27;20131;-82
2021/03/25 03:38:22;;;;;;;121.68;34.13;;;2.00;99.90;;;;;;4964133;27;20150;-82
2021/03/25 03:40:51;;;;;;;82.97;27.65;;;1.90;99.90;;;;;;4965644;27;20078;-81
2021/03/25 03:43:16;;;;;;;73.50;23.55;;;0.40;99.90;;;;;;4964109;27;20092;-82
2021/03/25 03:45:45;;;;;;;71.63;24.83;;;0.30;99.90;;;;;;4963592;27;20151;-82
2021/03/25 03:48:17;;;;;;;61.50;22.30;;;0.20;99.90;;;;;;4963552;27;20083;-82
2021/03/25 03:50:46;;;;;;;70.25;22.52;;;0.30;99.90;;;;;;4964336;27;20434;-82
2021/03/25 03:53:08;;;;;;;65.78;22.23;;;0.30;99.90;;;;;;4965879;27;20128;-82
2021/03/25 03:55:32;;;;;;;74.40;22.88;;;0.40;99.90;;;;;;4964651;27;20077;-82
2021/03/25 03:58:09;;;;;;;71.57;25.40;;;0.50;99.90;;;;;;4969526;27;20088;-79
2021/03/25 04:00:37;;;;;;;77.30;26.30;;;0.60;99.90;;;;;;4967381;27;20099;-81
2021/03/25 04:03:09;;;;;;;84.20;27.77;;;0.80;99.90;;;;;;4965344;27;20093;-81
2021/03/25 04:05:35;;;;;;;91.78;29.75;;;1.00;99.90;;;;;;4962580;27;20089;-82
2021/03/25 04:08:05;;;;;;;89.47;28.83;;;1.10;99.90;;;;;;4969366;27;20093;-82
2021/03/25 04:10:35;;;;;;;93.28;30.98;;;1.20;99.90;;;;;;4969089;27;20416;-82
2021/03/25 04:13:03;;;;;;;82.47;27.05;;;1.20;99.90;;;;;;4969923;27;20592;-82
2021/03/25 04:15:28;;;;;;;85.82;27.60;;;1.10;99.90;;;;;;4967752;27;20088;-81
2021/03/25 04:18:06;;;;;;;83.30;28.73;;;1.00;99.90;;;;;;4968923;27;20081;-82
2021/03/25 04:20:31;;;;;;;89.50;29.20;;;1.20;99.90;;;;;;4959564;27;20084;-82
2021/03/25 04:22:57;;;;;;;97.47;32.10;;;1.20;99.90;;;;;;4968806;27;20082;-82
2021/03/25 04:25:22;;;;;;;;;;;1.30;99.90;;;;;;4968764;27;20074;-82
2021/03/25 04:27:49;;;;;;;89.72;30.20;;;1.20;99.90;;;;;;4966479;27;20006;-81
2021/03/25 04:30:18;;;;;;;106.07;32.13;;;1.30;99.90;;;;;;4968750;27;20080;-82
2021/03/25 04:32:43;;;;;;;105.97;33.00;;;1.50;99.90;;;;;;4968401;27;20114;-81
2021/03/25 04:35:07;;;;;;;121.93;35.47;;;1.60;99.90;;;;;;4966998;27;20085;-82
2021/03/25 04:37:32;;;;;;;110.13;36.00;;;1.70;99.90;;;;;;4966704;27;20082;-82
2021/03/25 04:39:55;;;;;;;121.80;36.40;;;1.70;99.90;;;;;;4959939;27;20085;-79
2021/03/25 04:42:20;;;;;;;116.50;37.47;;;1.80;99.90;;;;;;4967296;27;20557;-80
2021/03/25 04:44:47;;;;;;;126.93;37.70;;;2.00;99.90;;;;;;4967788;27;20078;-80
2021/03/25 04:47:19;;;;;;;137.43;40.45;;;2.10;99.90;;;;;;4956867;27;20085;-81
2021/03/25 04:49:47;;;;;;;129.25;37.95;;;2.10;99.90;;;;;;4966595;27;20077;-79
2021/03/25 04:52:17;;;;;;;131.05;38.90;;;2.10;99.90;;;;;;4966589;27;20546;-82
2021/03/25 04:54:40;;;;;;;128.13;38.60;;;2.10;99.90;;;;;;4965046;27;20089;-82
2021/03/25 04:57:09;;;;;;;129.57;36.60;;;2.10;99.90;;;;;;4967430;27;20666;-82
2021/03/25 04:59:37;;;;;;;127.70;39.03;;;2.00;99.90;;;;;;4967656;27;20109;-82
2021/03/25 05:02:05;;;;;;;123.95;38.22;;;2.00;99.90;;;;;;4967201;27;20485;-83
2021/03/25 05:04:32;;;;;;;124.80;38.08;;;2.00;99.90;;;;;;4965636;27;20440;-82
2021/03/25 05:06:59;;;;;;;136.95;38.17;;;2.10;99.90;;;;;;4962699;27;20106;-82
2021/03/25 05:09:25;;;;;;;124.85;38.47;;;2.00;99.90;;;;;;4950736;27;20088;-80
2021/03/25 05:11:49;;;;;;;129.85;39.78;;;;;;;;;;4955700;27;20087;-81
2021/03/25 05:14:22;;;;;;;122.47;36.65;;;1.90;99.90;;;;;;4967875;27;20085;-80
2021/03/25 05:16:55;;;;;;;116.65;37.28;;;1.80;99.90;;;;;;4967485;27;20520;-82
2021/03/25 05:19:29;;;;;;;135.95;39.90;;;1.90;99.90;;;;;;4962402;27;20089;-81
2021/03/25 05:22:05;;;;;;;133.75;40.40;;;2.10;99.90;;;;;;4964323;27;20126;-81
2021/03/25 05:24:36;;;;;;;139.27;40.40;;;2.20;99.90;;;;;;4962425;27;20081;-81
2021/03/25 05:27:03;;;;;;;139.13;40.65;;;2.20;99.90;;;;;;4963658;27;20090;-81
2021/03/25 05:29:28;;;;;;;144.20;39.42;;;2.20;99.90;;;;;;4964225;27;20101;-81
2021/03/25 05:31:54;;;;;;;135.52;40.05;;;2.30;99.90;;;;;;4964571;27;20536;-80
2021/03/25 05:34:23;;;;;;;119.78;38.83;;;2.40;99.90;;;;;;4962779;27;20086;-79
2021/03/25 05:36:46;;;;;;;133.30;40.22;;;2.40;99.90;;;;;;4965044;27;20081;-83
2021/03/25 05:39:10;;;;;;;143.55;42.60;;;2.60;99.90;;;;;;4963826;27;20444;-80
2021/03/25 05:41:42;;;;;;;140.75;41.35;;;2.70;99.90;;;;;;4967256;27;20115;-81
2021/03/25 05:44:30;;;;;;;157.20;43.35;;;2.70;99.90;;;;;;4967546;27;20085;-80
2021/03/25 05:47:04;;;;;;;158.00;43.17;;;2.90;99.90;;;;;;4960465;27;20077;-81
2021/03/25 05:49:36;;;;;;;159.98;46.38;;;3.10;99.90;;;;;;4964654;27;20082;-82
2021/03/25 05:52:23;;;;;;;160.73;46.67;;;3.20;99.90;;;;;;4966303;27;20103;-81
2021/03/25 05:54:53;;;;;;;;;;;3.30;99.90;;;;;;4965643;27;20134;-81
2021/03/25 05:57:44;;;;;;;147.20;41.05;;;3.70;99.90;;;;;;4964979;27;19962;-83
2021/03/25 06:00:18;;;;;;;141.95;41.95;;;4.10;99.90;;;;;;4964908;27;20536;-82
2021/03/25 06:02:47;;;;;;;137.73;44.33;;;4.40;99.90;;;;;;4964839;27;20077;-81
2021/03/25 06:05:12;;;;;;;118.88;39.90;;;4.70;99.90;;;;;;4964988;27;20133;-82
2021/03/25 06:08:16;;;;;;;114.30;42.17;;;4.70;99.90;;;;;;4964681;27;20447;-82
2021/03/25 06:10:50;;;;;;;97.82;37.08;;;4.80;99.90;;;;;;4871277;27;20091;-81
2021/03/25 06:13:31;;;;;;;95.95;38.15;;;5.10;99.90;;;;;;4960345;27;20085;-82
2021/03/25 06:16:19;;;;;;;97.07;34.78;;;5.20;99.90;;;;;;4962719;27;20089;-83
2021/03/25 06:19:06;;;;;;;95.07;36.05;;;5.60;99.90;;;;;;4964721;27;20081;-82
2021/03/25 06:21:53;;;;;;;81.95;34.42;;;6.10;99.90;;;;;;4950506;27;20082;-82
2021/03/25 06:24:26;;;;;;;;;;;6.20;99.90;;;;;;4961424;27;20079;-83
2021/03/25 06:26:57;;;;;;;71.30;31.33;;;6.50;99.90;;;;;;4963486;27;19961;-81
2021/03/25 06:29:24;;;;;;;81.75;34.88;;;6.90;99.90;;;;;;4965455;27;20093;-82
2021/03/25 06:31:59;;;;;;;82.20;34.25;;;7.60;99.90;;;;;;4961842;27;20101;-81
2021/03/25 06:34:32;;;;;;;77.40;31.45;;;8.20;99.90;;;;;;4964536;27;20079;-81
2021/03/25 06:37:04;;;;;;;82.63;33.20;;;8.60;99.90;;;;;;4963413;27;20086;-81
2021/03/25 06:39:40;;;;;;;77.53;32.13;;;9.00;99.90;;;;;;4955298;27;20086;-83
2021/03/25 06:42:24;;;;;;;69.00;31.90;;;8.70;99.90;;;;;;4960904;27;20120;-82
2021/03/25 06:44:56;;;;;;;73.45;34.15;;;9.00;99.90;;;;;;4962700;27;20074;-83
2021/03/25 06:47:30;;;;;;;78.55;32.80;;;9.20;99.90;;;;;;4938932;27;21831;-82
2021/03/25 06:49:58;;;;;;;73.50;32.85;;;9.80;99.90;;;;;;4954240;27;20092;-83
2021/03/25 06:52:27;;;;;;;75.07;32.25;;;10.60;99.90;;;;;;4959382;27;20079;-83
2021/03/25 06:54:54;;;;;;;67.20;30.38;;;11.40;99.90;;;;;;4964512;27;20452;-81
2021/03/25 06:57:19;;;;;;;65.93;30.77;;;12.20;99.90;;;;;;4961375;27;20050;-83
2021/03/25 06:59:43;;;;;;;64.30;29.35;;;12.80;99.90;;;;;;4965685;27;20043;-83
2021/03/25 07:02:18;;;;;;;66.55;32.17;;;13.20;99.90;;;;;;4964665;27;20043;-83
2021/03/25 07:04:44;;;;;;;66.03;30.23;;;13.50;99.90;;;;;;4965601;27;20085;-83
2021/03/25 07:07:13;;;;;;;67.15;29.60;;;13.70;99.90;;;;;;4962885;27;20159;-83
2021/03/25 07:09:39;;;;;;;61.47;29.45;;;14.00;99.90;;;;;;4962923;27;20574;-82
2021/03/25 07:12:06;;;;;;;60.95;29.58;;;13.70;99.90;;;;;;4962331;27;20505;-83
2021/03/25 07:14:35;;;;;;;63.03;29.17;;;12.80;99.90;;;;;;4964650;27;20039;-83
2021/03/25 07:16:58;;;;;;;59.47;27.85;;;12.20;99.90;;;;;;4964706;27;20051;-82
2021/03/25 07:19:23;;;;;;;57.88;28.33;;;11.60;99.90;;;;;;4962614;27;20050;-81
2021/03/25 07:21:48;;;;;;;63.53;30.42;;;11.40;99.90;;;;;;4965039;27;20051;-82
2021/03/25 07:24:28;;;;;;;62.92;30.50;;;11.90;99.90;;;;;;4965298;27;20512;-82
2021/03/25 07:26:56;;;;;;;67.13;29.30;;;12.10;99.90;;;;;;4965198;27;20530;-82
2021/03/25 07:29:29;;;;;;;62.80;28.75;;;12.10;99.90;;;;;;4967103;27;20099;-80
2021/03/25 07:31:58;;;;;;;65.50;29.05;;;12.10;99.90;;;;;;4969241;27;20077;-80
2021/03/25 07:34:36;;;;;;;70.88;30.10;;;11.90;99.90;;;;;;4968054;27;20508;-82
2021/03/25 07:37:01;;;;;;;63.90;27.42;;;11.50;99.90;;;;;;4965371;27;20086;-82
2021/03/25 07:39:27;;;;;;;67.97;29.40;;;11.00;99.90;;;;;;4968444;27;20087;-81
2021/03/25 07:41:53;;;;;;;68.18;30.02;;;11.20;99.90;;;;;;4968456;27;20080;-81
2021/03/25 07:44:30;;;;;;;62.53;28.63;;;11.40;99.90;;;;;;4966692;27;20076;-80
2021/03/25 07:46:58;;;;;;;64.75;28.98;;;11.00;99.90;;;;;;4968431;27;20077;-81
2021/03/25 07:49:23;;;;;;;63.47;28.23;;;10.30;99.90;;;;;;4968028;27;20141;-80
2021/03/25 07:51:52;;;;;;;69.13;28.67;;;9.20;99.90;;;;;;4969770;27;20086;-81
2021/03/25 07:54:19;;;;;;;67.95;27.58;;;8.30;99.90;;;;;;4968461;27;20079;-81
2021/03/25 07:56:58;;;;;;;75.93;29.52;;;8.00;99.90;;;;;;4964452;27;20135;-82
2021/03/25 07:59:40;;;;;;;76.30;30.95;;;7.90;99.90;;;;;;4967871;27;20162;-82
2021/03/25 08:02:09;;;;;;;77.57;30.30;;;8.20;99.90;;;;;;4966710;27;22583;-81
2021/03/25 08:04:33;;;;;;;73.22;28.48;;;8.30;99.90;;;;;;4967795;27;20438;-82
2021/03/25 08:07:04;;;;;;;84.32;29.85;;;8.40;99.90;;;;;;4969065;27;20632;-82
2021/03/25 08:09:27;;;;;;;77.95;30.48;;;8.70;99.90;;;;;;4966494;27;20090;-82
2021/03/25 08:11:55;;;;;;;71.28;28.05;;;8.70;99.90;;;;;;4954186;27;20144;-79
2021/03/25 08:14:22;;;;;;;69.15;27.83;;;8.30;99.90;;;;;;4959503;27;20097;-80
2021/03/25 08:16:50;;;;;;;58.67;24.60;;;7.90;99.90;;;;;;4969303;27;20076;-81
2021/03/25 08:19:27;;;;;;;73.85;26.05;;;7.80;99.90;;;;;;4967314;27;20664;-81
2021/03/25 08:22:18;;;;;;;77.97;26.80;;;7.80;99.90;;;;;;4968834;27;20454;-78
2021/03/25 08:25:16;;;;;;;71.00;27.92;;;7.90;99.90;;;;;;4966880;27;20095;-81
2021/03/25 08:28:01;;;;;;;81.07;26.67;;;8.00;99.90;;;;;;4950207;27;20111;-80
2021/03/25 08:30:45;;;;;;;63.50;23.15;;;8.30;99.90;;;;;;4959814;27;20089;-79
2021/03/25 08:33:21;;;;;;;67.32;23.95;;;8.40;99.90;;;;;;4964697;27;20080;-81
2021/03/25 08:35:55;;;;;;;62.75;23.63;;;8.20;99.90;;;;;;4963717;27;20145;-79
2021/03/25 08:38:51;;;;;;;61.75;24.10;;;8.20;99.90;;;;;;4966738;27;20498;-81
2021/03/25 08:41:20;;;;;;;72.53;24.23;;;8.00;99.90;;;;;;4964366;27;20427;-81
2021/03/25 08:43:53;;;;;;;70.95;24.23;;;8.00;99.90;;;;;;4967293;27;20099;-82
2021/03/25 08:46:24;;;;;;;62.08;23.42;;;8.00;99.90;;;;;;4967253;27;20083;-81
2021/03/25 08:48:53;;;;;;;68.35;25.83;;;7.80;99.90;;;;;;4965305;27;20752;-82
2021/03/25 08:51:20;;;;;;;64.55;24.38;;;6.20;99.90;;;;;;4968689;27;20088;-81
2021/03/25 08:53:47;;;;;;;53.53;21.42;;;7.80;99.90;;;;;;4966592;27;20743;-81
2021/03/25 08:56:26;;;;;;;61.20;23.05;;;8.00;99.90;;;;;;4966540;27;20092;-82
2021/03/25 08:58:52;;;;;;;57.20;22.10;;;8.10;99.90;;;;;;4966103;27;20088;-82
2021/03/25 09:01:57;;;;;;;60.67;19.80;;;8.00;99.90;;;;;;4931300;27;20098;-79
2021/03/25 09:04:33;;;;;;;40.03;14.35;;;8.10;99.90;;;;;;4900130;27;20107;-81
2021/03/25 09:06:57;;;;;;;51.85;17.13;;;8.00;99.90;;;;;;4931071;27;20087;-82
2021/03/25 09:09:44;;;;;;;48.20;15.40;;;8.30;99.90;;;;;;4923860;27;20085;-83
2021/03/25 09:12:16;;;;;;;54.80;19.25;;;8.10;99.90;;;;;;4924521;27;20103;-84
2021/03/25 09:14:42;;;;;;;54.65;20.65;;;8.10;99.90;;;;;;4912717;27;20155;-84
2021/03/25 09:17:15;;;;;;;51.30;19.20;;;8.20;99.90;;;;;;4918254;27;20458;-83
2021/03/25 09:19:42;;;;;;;55.67;20.77;;;8.40;99.90;;;;;;4926717;27;20106;-83
2021/03/25 09:22:08;;;;;;;54.78;19.02;;;8.50;99.90;;;;;;4911391;27;20512;-83
2021/03/25 09:25:36;;;;;;;55.72;20.40;;;8.60;99.90;;;;;;4924216;27;20151;-84
2021/03/25 09:28:02;;;;;;;49.35;20.73;;;8.60;99.90;;;;;;4912808;27;20162;-83
2021/03/25 09:30:38;;;;;;;53.63;20.48;;;8.70;99.90;;;;;;4933248;27;20083;-84
2021/03/25 09:33:37;;;;;;;58.50;20.88;;;8.80;99.90;;;;;;4965577;27;20101;-84
2021/03/25 09:36:42;;;;;;;44.30;16.48;;;9.30;99.90;;;;;;4953000;27;20082;-84
2021/03/25 09:39:33;;;;;;;44.70;17.10;;;9.80;99.90;;;;;;4917795;27;20088;-84
2021/03/25 09:42:23;;;;;;;42.60;17.20;;;10.20;99.90;;;;;;4897219;27;20090;-85
2021/03/25 09:45:25;;;;;;;49.95;18.52;;;10.30;99.90;;;;;;4927938;27;20177;-85
2021/03/25 09:48:01;;;;;;;54.30;18.55;;;10.30;99.90;;;;;;4893099;27;20076;-84
2021/03/25 09:50:50;;;;;;;34.22;13.93;;;9.90;99.90;;;;;;4919172;27;20083;-84
2021/03/25 09:53:32;;;;;;;38.08;15.40;;;9.40;99.90;;;;;;4908049;27;20091;-82
2021/03/25 09:56:23;;;;;;;46.15;16.80;;;9.10;99.90;;;;;;4887428;27;20681;-82
2021/03/25 09:58:51;;;;;;;40.30;15.73;;;8.90;99.90;;;;;;4901156;27;20086;-82
2021/03/25 10:01:46;;;;;;;36.22;15.43;;;8.90;99.90;;;;;;4919174;27;20476;-84
2021/03/25 10:04:40;;;;;;;45.38;17.30;;;9.10;99.90;;;;;;4908544;27;20087;-80
2021/03/25 10:07:41;;;;;;;42.50;17.05;;;9.50;99.90;;;;;;4825431;28;20164;-85
2021/03/25 10:10:37;;;;;;;43.50;17.50;;;9.60;99.90;;;;;;4893778;27;20166;-85
2021/03/25 10:13:36;;;;;;;42.97;17.85;;;9.70;99.90;;;;;;4902025;27;20146;-84
2021/03/25 10:16:12;;;;;;;43.05;16.15;;;10.00;99.90;;;;;;4897565;27;20631;-78
2021/03/25 10:18:53;;;;;;;51.78;18.73;;;9.90;99.90;;;;;;4913770;27;20090;-80
2021/03/25 10:21:39;;;;;;;48.55;16.65;;;10.00;99.90;;;;;;4890688;27;20099;-80
2021/03/25 10:24:32;;;;;;;42.15;16.52;;;9.90;99.90;;;;;;4885301;27;20113;-78
2021/03/25 10:27:24;;;;;;;46.80;16.77;;;10.00;99.90;;;;;;4894008;27;20545;-80
2021/03/25 10:29:48;;;;;;;48.88;16.98;;;10.10;99.90;;;;;;4916669;27;20098;-83
2021/03/25 10:35:41;;;;;;;35.75;15.85;;;10.60;99.90;;;;;;4914997;27;20080;-83
2021/03/25 10:38:08;;;;;;;47.03;18.30;;;10.50;99.90;;;;;;4924193;27;20101;-83
2021/03/25 10:40:45;;;;;;;41.00;17.73;;;10.60;99.90;;;;;;4897891;27;20539;-83
2021/03/25 10:43:43;;;;;;;48.47;17.38;;;10.70;99.90;;;;;;4912508;27;20091;-83
2021/03/25 10:46:10;;;;;;;38.60;17.20;;;10.90;99.90;;;;;;4899057;27;20489;-82
2021/03/25 10:49:13;;;;;;;39.55;17.42;;;11.00;99.90;;;;;;4931924;27;20158;-81
2021/03/25 10:51:42;;;;;;;44.22;15.88;;;11.00;99.90;;;;;;4918902;27;20582;-81
2021/03/25 10:54:15;;;;;;;35.90;14.68;;;11.40;99.90;;;;;;4906828;27;20093;-81
2021/03/25 10:57:29;;;;;;;39.97;14.02;;;11.60;99.90;;;;;;4910424;27;20103;-88
2021/03/25 11:00:18;;;;;;;35.85;12.85;;;11.90;99.90;;;;;;4895043;27;21917;-82
2021/03/25 11:02:44;;;;;;;37.55;14.90;;;12.40;99.90;;;;;;4907480;27;20076;-84
2021/03/25 11:05:18;;;;;;;37.10;14.57;;;12.60;99.90;;;;;;4953349;27;20428;-82
2021/03/25 11:07:43;;;;;;;33.05;14.30;;;13.00;99.90;;;;;;4966078;27;20429;-82
2021/03/25 11:10:17;;;;;;;36.77;13.30;;;12.90;99.90;;;;;;4967839;27;20093;-82
2021/03/25 11:12:42;;;;;;;37.80;14.38;;;12.70;99.90;;;;;;4963422;27;20473;-86
2021/03/25 11:15:16;;;;;;;32.67;12.90;;;12.50;99.90;;;;;;4953577;27;20438;-81
2021/03/25 11:17:43;;;;;;;33.35;14.02;;;12.70;99.90;;;;;;4953522;27;20072;-81
2021/03/25 11:20:12;;;;;;;35.97;14.75;;;12.50;99.90;;;;;;4963069;27;20079;-85
2021/03/25 11:22:36;;;;;;;28.92;12.63;;;12.70;99.90;;;;;;4936176;27;20079;-81
2021/03/25 11:25:12;;;;;;;28.45;13.73;;;12.60;99.90;;;;;;4966305;27;20601;-81
2021/03/25 11:27:35;;;;;;;34.35;15.10;;;;;;;;;;4945321;27;20071;-81
2021/03/25 11:30:27;;;;;;;36.15;14.68;;;12.90;99.90;;;;;;4951494;27;20159;-80
2021/03/25 11:32:52;;;;;;;34.63;14.57;;;12.60;99.90;;;;;;4962137;27;20081;-81
2021/03/25 11:35:29;;;;;;;33.22;13.38;;;12.80;99.90;;;;;;4965388;27;20078;-84
2021/03/25 11:37:54;;;;;;;31.98;14.20;;;12.70;99.90;;;;;;4963520;27;20107;-80
2021/03/25 11:40:41;;;;;;;34.03;14.25;;;12.80;99.90;;;;;;4965969;27;20394;-80
2021/03/25 11:43:09;;;;;;;32.13;13.48;;;12.90;99.90;;;;;;4964370;27;20087;-82
2021/03/25 11:45:40;;;;;;;32.05;13.73;;;12.70;99.90;;;;;;4964702;27;20128;-81
2021/03/25 11:48:26;;;;;;;30.65;14.00;;;12.70;99.90;;;;;;4967435;27;20080;-82
2021/03/25 11:50:49;;;;;;;43.58;16.20;;;12.70;99.90;;;;;;4958794;27;20081;-83
2021/03/25 11:53:28;;;;;;;37.25;14.60;;;12.90;99.90;;;;;;4965681;27;20081;-82
2021/03/25 11:55:53;;;;;;;37.83;15.07;;;12.20;99.90;;;;;;4966898;27;20135;-80
2021/03/25 11:58:19;;;;;;;34.58;15.07;;;12.10;99.90;;;;;;4966460;27;24048;-81
2021/03/25 12:00:58;;;;;;;36.05;15.45;;;12.40;99.90;;;;;;4966273;27;20086;-82
2021/03/25 12:03:28;;;;;;;35.40;14.52;;;12.50;99.90;;;;;;4962356;27;20115;-83
2021/03/25 12:05:50;;;;;;;30.40;12.73;;;12.40;99.90;;;;;;4962262;27;20109;-83
2021/03/25 12:08:30;;;;;;;29.48;13.40;;;12.70;99.90;;;;;;4951445;27;20155;-83
2021/03/25 12:11:05;;;;;;;33.33;13.80;;;12.10;99.90;;;;;;4956680;27;20140;-82
2021/03/25 12:13:27;;;;;;;35.05;15.70;;;12.00;99.90;;;;;;4962125;27;20128;-81
2021/03/25 12:15:50;;;;;;;38.55;14.98;;;12.10;99.90;;;;;;4965513;27;20156;-84
2021/03/25 12:18:23;;;;;;;31.25;14.10;;;12.10;99.90;;;;;;4966097;27;20083;-80
2021/03/25 12:20:46;;;;;;;32.15;13.55;;;11.80;99.90;;;;;;4959109;27;20083;-83
2021/03/25 12:23:15;;;;;;;27.80;12.60;;;11.80;99.90;;;;;;4964272;27;20089;-83
2021/03/25 12:25:38;;;;;;;27.02;11.32;;;12.20;99.90;;;;;;4966194;27;20086;-83
2021/03/25 12:28:01;;;;;;;27.88;12.18;;;12.40;99.90;;;;;;4937787;27;20083;-83
2021/03/25 12:30:24;;;;;;;30.17;12.65;;;12.50;99.90;;;;;;4968115;27;20669;-84
2021/03/25 12:32:47;;;;;;;24.70;11.45;;;12.70;99.90;;;;;;4967491;27;20078;-85
2021/03/25 12:35:13;;;;;;;30.10;11.07;;;12.90;99.90;;;;;;4956987;27;20095;-85
2021/03/25 12:37:37;;;;;;;24.48;11.48;;;12.80;99.90;;;;;;4965305;27;20105;-84
2021/03/25 12:39:59;;;;;;;26.80;11.95;;;12.80;99.90;;;;;;4967852;27;20135;-83
2021/03/25 12:42:23;;;;;;;35.10;12.93;;;12.70;99.90;;;;;;4965434;27;20087;-83
2021/03/25 12:44:45;;;;;;;23.65;10.10;;;12.70;99.90;;;;;;4967574;27;20075;-84
2021/03/25 12:47:11;;;;;;;24.60;10.38;;;12.70;99.90;;;;;;4968985;27;20572;-84
2021/03/25 12:49:33;;;;;;;25.17;11.00;;;12.50;99.90;;;;;;4967601;27;20075;-84
2021/03/25 12:51:56;;;;;;;18.25;9.10;;;12.60;99.90;;;;;;4964883;27;20094;-84
2021/03/25 12:54:19;;;;;;;21.27;9.38;;;12.60;99.90;;;;;;4964589;27;20563;-82
2021/03/25 12:56:42;;;;;;;22.65;9.73;;;12.70;99.90;;;;;;4965328;27;20102;-83
2021/03/25 12:59:07;;;;;;;19.90;8.98;;;12.70;99.90;;;;;;4967611;27;20086;-85